createdAt,value
2023-03-31T00:01:24.300Z,98291.95
2023-03-31T00:04:02.115Z,98299.48
2023-03-31T00:06:41.880Z,98302.85
2023-03-31T00:09:16.074Z,98296.53
2023-03-31T00:11:45.461Z,98295.30
2023-03-31T00:14:13.772Z,98293.23
2023-03-31T00:16:42.006Z,98294.52
2023-03-31T00:19:18.094Z,98293.84
2023-03-31T00:21:48.169Z,98293.02
2023-03-31T00:24:16.547Z,98295.11
2023-03-31T00:26:45.375Z,98293.24
2023-03-31T00:29:14.292Z,98294.42
2023-03-31T00:31:42.759Z,98293.63
2023-03-31T00:34:11.050Z,98296.27
2023-03-31T00:36:47.423Z,98301.37
2023-03-31T00:39:18.825Z,98302.64
2023-03-31T00:41:47.179Z,98298.09
2023-03-31T00:44:23.056Z,98291.19
2023-03-31T00:47:13.510Z,98289.82
2023-03-31T00:49:51.848Z,98289.59
2023-03-31T00:52:22.674Z,98292.95
2023-03-31T00:55:06.904Z,98292.06
2023-03-31T00:57:39.621Z,98287.83
2023-03-31T01:00:16.556Z,98288.05
2023-03-31T01:02:56.060Z,98288.64
2023-03-31T01:05:31.036Z,98281.14
2023-03-31T01:08:00.685Z,98279.83
2023-03-31T01:10:33.111Z,98284.32
2023-03-31T01:13:01.393Z,98286.23
2023-03-31T01:15:31.580Z,98289.42
2023-03-31T01:18:01.058Z,98291.66
2023-03-31T01:20:54.144Z,98297.79
2023-03-31T01:24:16.398Z,98294.54
2023-03-31T01:27:02.497Z,98305.16
2023-03-31T01:29:58.922Z,98301.69
2023-03-31T01:32:54.623Z,98303.86
2023-03-31T01:35:28.998Z,98307.45
2023-03-31T01:38:28.432Z,98307.68
2023-03-31T01:41:19.086Z,98306.02
2023-03-31T01:44:06.169Z,98309.11
2023-03-31T01:46:41.254Z,98305.05
2023-03-31T01:49:34.484Z,98306.56
2023-03-31T01:52:25.993Z,98301.74
2023-03-31T01:55:02.945Z,98298.99
2023-03-31T01:57:40.521Z,98295.91
2023-03-31T02:00:12.829Z,98293.10
2023-03-31T02:02:48.863Z,98288.20
2023-03-31T02:05:22.750Z,98291.98
2023-03-31T02:07:56.083Z,98288.09
2023-03-31T02:10:28.258Z,98287.71
2023-03-31T02:13:01.987Z,98285.83
2023-03-31T02:15:41.527Z,98286.34
2023-03-31T02:18:17.244Z,98289.61
2023-03-31T02:20:47.805Z,98289.05
2023-03-31T02:23:20.028Z,98287.33
2023-03-31T02:26:01.017Z,98287.64
2023-03-31T02:28:30.446Z,98287.17
2023-03-31T02:31:13.321Z,98288.33
2023-03-31T02:33:42.310Z,98290.17
2023-03-31T02:36:11.454Z,98294.56
2023-03-31T02:38:46.177Z,98293.46
2023-03-31T02:41:14.498Z,98294.11
2023-03-31T02:43:42.825Z,98295.02
2023-03-31T02:46:11.847Z,98292.86
2023-03-31T02:48:54.255Z,98291.24
2023-03-31T02:51:47.727Z,98291.52
2023-03-31T02:54:37.811Z,98285.01
2023-03-31T02:57:33.077Z,98283.98
2023-03-31T03:00:14.746Z,98281.30
2023-03-31T03:02:54.129Z,98277.88
2023-03-31T03:05:34.976Z,98274.58
2023-03-31T03:09:01.341Z,98278.42
2023-03-31T03:11:46.407Z,98285.49
2023-03-31T03:14:42.412Z,98283.91
2023-03-31T03:17:15.280Z,98286.13
2023-03-31T03:19:43.575Z,98288.52
2023-03-31T03:22:11.810Z,98287.48
2023-03-31T03:24:40.022Z,98286.19
2023-03-31T03:27:08.165Z,98285.29
2023-03-31T03:29:36.387Z,98284.80
2023-03-31T03:32:04.650Z,98282.19
2023-03-31T03:34:32.868Z,98283.38
2023-03-31T03:37:01.096Z,98281.48
2023-03-31T03:39:29.537Z,98282.02
2023-03-31T03:41:57.856Z,98285.65
2023-03-31T03:44:26.134Z,98284.86
2023-03-31T03:46:54.461Z,98285.06
2023-03-31T03:49:22.808Z,98284.31
2023-03-31T03:51:51.648Z,98288.43
2023-03-31T03:54:19.882Z,98290.54
2023-03-31T03:56:48.176Z,98287.98
2023-03-31T03:59:16.712Z,98291.77
2023-03-31T04:01:45.041Z,98293.41
2023-03-31T04:04:13.644Z,98292.62
2023-03-31T04:06:42.574Z,98291.98
2023-03-31T04:09:11.323Z,98291.27
2023-03-31T04:11:39.665Z,98285.53
2023-03-31T04:14:07.940Z,98281.96
2023-03-31T04:16:36.309Z,98280.66
2023-03-31T04:19:05.207Z,98280.08
2023-03-31T04:21:36.498Z,98279.42
2023-03-31T04:24:05.093Z,98277.77
2023-03-31T04:26:44.357Z,98273.04
2023-03-31T04:29:14.409Z,98268.61
2023-03-31T04:31:43.671Z,98268.71
2023-03-31T04:34:14.533Z,98264.55
2023-03-31T04:36:48.715Z,98261.09
2023-03-31T04:39:18.736Z,98258.90
2023-03-31T04:41:47.024Z,98259.30
2023-03-31T04:44:15.404Z,98260.04
2023-03-31T04:46:43.676Z,98261.30
2023-03-31T04:49:11.922Z,98259.45
2023-03-31T04:51:40.378Z,98258.36
2023-03-31T04:54:08.643Z,98255.96
2023-03-31T04:56:36.942Z,98256.41
2023-03-31T04:59:05.352Z,98250.08
2023-03-31T05:01:33.772Z,98243.70
2023-03-31T05:04:03.682Z,98237.83
2023-03-31T05:06:32.602Z,98238.44
2023-03-31T05:09:01.191Z,98235.58
2023-03-31T05:11:29.450Z,98239.01
2023-03-31T05:13:57.679Z,98236.84
2023-03-31T05:16:26.231Z,98240.61
2023-03-31T05:18:55.062Z,98237.80
2023-03-31T05:21:23.482Z,98235.73
2023-03-31T05:23:51.780Z,98238.52
2023-03-31T05:26:22.432Z,98236.68
2023-03-31T05:28:54.499Z,98232.63
2023-03-31T05:31:23.481Z,98231.67
2023-03-31T05:33:51.974Z,98229.14
2023-03-31T05:36:23.752Z,98220.27
2023-03-31T05:38:52.566Z,98216.01
2023-03-31T05:41:21.242Z,98216.60
2023-03-31T05:43:49.641Z,98215.73
2023-03-31T05:46:18.635Z,98219.98
2023-03-31T05:48:46.901Z,98220.27
2023-03-31T05:51:15.054Z,98220.58
2023-03-31T05:53:44.151Z,98216.85
2023-03-31T05:56:12.554Z,98215.66
2023-03-31T05:58:41.157Z,98216.74
2023-03-31T06:01:12.392Z,98215.76
2023-03-31T06:03:42.102Z,98216.89
2023-03-31T06:06:13.007Z,98215.98
2023-03-31T06:08:42.114Z,98214.36
2023-03-31T06:11:13.277Z,98214.33
2023-03-31T06:13:42.180Z,98213.36
2023-03-31T06:16:12.955Z,98217.16
2023-03-31T06:18:42.013Z,98216.38
2023-03-31T06:21:16.894Z,98218.23
2023-03-31T06:23:48.843Z,98219.83
2023-03-31T06:26:19.032Z,98219.39
2023-03-31T06:28:47.523Z,98216.05
2023-03-31T06:31:21.717Z,98215.19
2023-03-31T06:33:50.475Z,98213.21
2023-03-31T06:36:21.537Z,98212.67
2023-03-31T06:38:51.271Z,98211.41
2023-03-31T06:41:21.244Z,98212.08
2023-03-31T06:43:49.643Z,98209.94
2023-03-31T06:46:18.735Z,98208.83
2023-03-31T06:48:47.676Z,98207.98
2023-03-31T06:51:16.554Z,98206.24
2023-03-31T06:53:44.892Z,98206.73
2023-03-31T06:56:18.916Z,98206.24
2023-03-31T06:58:47.395Z,98206.34
2023-03-31T07:01:15.700Z,98207.39
2023-03-31T07:03:45.429Z,98203.50
2023-03-31T11:48:27.591Z,97867.88
2023-03-31T11:50:58.858Z,97860.74
2023-03-31T11:53:39.969Z,97863.02
2023-03-31T11:56:11.175Z,97860.07
2023-03-31T11:59:32.896Z,97858.66
2023-03-31T12:02:24.628Z,97860.13
2023-03-31T12:04:56.518Z,97851.30
2023-03-31T12:07:31.027Z,97850.74
2023-03-31T12:10:17.607Z,97847.72
2023-03-31T12:13:12.908Z,97848.13
2023-03-31T12:15:46.428Z,97846.77
2023-03-31T12:18:23.322Z,97845.77
2023-03-31T12:20:58.181Z,97839.58
2023-03-31T12:23:32.122Z,97839.80
2023-03-31T12:26:11.580Z,97841.14
2023-03-31T12:28:43.185Z,97842.71
2023-03-31T12:31:23.845Z,97838.99
2023-03-31T12:34:04.387Z,97843.21
2023-03-31T12:36:58.480Z,97841.91
2023-03-31T12:40:08.201Z,97842.30
2023-03-31T12:42:56.164Z,97836.11
2023-03-31T12:45:39.562Z,97834.05
2023-03-31T12:48:16.142Z,97831.36
2023-03-31T12:51:20.940Z,97826.89
2023-03-31T12:54:25.945Z,97818.44
2023-03-31T12:57:14.459Z,97806.69
2023-03-31T13:00:19.134Z,97797.11
2023-03-31T13:03:16.344Z,97790.73
2023-03-31T13:05:52.916Z,97790.52
2023-03-31T13:08:50.445Z,97790.80
2023-03-31T13:11:45.783Z,97784.97
2023-03-31T13:14:49.501Z,97782.95
2023-03-31T13:17:31.613Z,97781.77
2023-03-31T13:20:31.086Z,97777.20
2023-03-31T13:23:07.230Z,97776.11
2023-03-31T13:25:48.809Z,97766.55
2023-03-31T13:31:16.419Z,97760.46
2023-03-31T13:33:58.532Z,97756.91
2023-03-31T13:37:00.659Z,97753.11
2023-03-31T13:39:48.553Z,97742.54
2023-03-31T13:43:07.511Z,97738.64
2023-03-31T13:46:02.044Z,97737.75
2023-03-31T13:48:51.083Z,97731.23
2023-03-31T13:51:47.244Z,97722.88
2023-03-31T13:54:21.571Z,97717.54
2023-03-31T13:57:17.529Z,97715.62
2023-03-31T14:00:14.449Z,97707.14
2023-03-31T14:03:01.799Z,97696.38
2023-03-31T14:05:43.554Z,97687.54
2023-03-31T14:08:20.020Z,97680.98
2023-03-31T14:10:48.339Z,97672.83
2023-03-31T14:13:19.482Z,97660.59
2023-03-31T14:15:58.753Z,97657.98
2023-03-31T14:18:33.539Z,97659.40
2023-03-31T14:21:13.772Z,97661.09
2023-03-31T14:23:47.765Z,97660.14
2023-03-31T14:26:28.752Z,97660.41
2023-03-31T14:29:02.739Z,97655.88
2023-03-31T14:31:59.099Z,97652.79
2023-03-31T14:34:55.896Z,97649.61
2023-03-31T14:37:25.036Z,97646.80
2023-03-31T14:39:56.848Z,97646.05
2023-03-31T14:42:39.571Z,97647.89
2023-03-31T14:45:25.052Z,97648.21
2023-03-31T14:48:16.856Z,97647.26
2023-03-31T14:50:47.159Z,97647.74
2023-03-31T14:53:25.429Z,97650.67
2023-03-31T14:56:24.098Z,97647.91
2023-03-31T14:58:55.242Z,97647.80
2023-03-31T15:01:35.940Z,97645.77
2023-03-31T15:04:09.286Z,97644.56
2023-03-31T15:06:42.043Z,97642.65
2023-03-31T15:09:19.247Z,97642.31
2023-03-31T15:11:53.539Z,97638.30
2023-03-31T15:14:24.005Z,97644.67
2023-03-31T15:16:52.353Z,97639.23
2023-03-31T15:19:23.516Z,97638.64
2023-03-31T15:22:20.720Z,97640.02
2023-03-31T15:24:49.598Z,97638.91
2023-03-31T15:27:44.464Z,97631.33
2023-03-31T15:30:23.550Z,97627.80
2023-03-31T15:32:56.898Z,97620.10
2023-03-31T15:35:36.091Z,97613.70
2023-03-31T15:38:06.667Z,97609.63
2023-03-31T15:40:41.129Z,97605.30
2023-03-31T15:43:27.159Z,97604.59
2023-03-31T15:45:58.005Z,97599.05
2023-03-31T15:48:26.183Z,97594.89
2023-03-31T15:51:01.406Z,97588.52
2023-03-31T15:53:58.970Z,97582.41
2023-03-31T15:56:34.842Z,97576.34
2023-03-31T15:59:06.967Z,97577.36
2023-03-31T16:01:47.878Z,97579.09
2023-03-31T16:04:17.245Z,97582.46
2023-03-31T16:06:58.504Z,97580.00
2023-03-31T16:09:39.844Z,97578.15
2023-03-31T16:12:23.716Z,97575.70
2023-03-31T16:15:05.054Z,97574.80
2023-03-31T16:17:50.774Z,97573.34
2023-03-31T16:20:23.822Z,97571.98
2023-03-31T16:22:55.637Z,97565.33
2023-03-31T16:25:26.303Z,97566.46
2023-03-31T16:27:57.930Z,97558.85
2023-03-31T16:30:41.409Z,97554.91
2023-03-31T16:33:16.093Z,97557.39
2023-03-31T16:35:55.540Z,97551.77
2023-03-31T16:38:26.137Z,97549.64
2023-03-31T16:40:57.843Z,97543.21
2023-03-31T16:43:34.429Z,97539.36
2023-03-31T16:46:07.948Z,97535.73
2023-03-31T16:48:36.301Z,97527.27
2023-03-31T16:51:05.122Z,97529.05
2023-03-31T16:53:36.124Z,97527.59
2023-03-31T16:56:08.389Z,97525.36
2023-03-31T16:58:38.025Z,97521.42
2023-03-31T17:01:07.908Z,97518.61
2023-03-31T17:03:42.001Z,97518.29
2023-03-31T17:06:13.659Z,97516.40
2023-03-31T17:08:41.965Z,97514.73
2023-03-31T17:11:14.439Z,97518.27
2023-03-31T17:13:44.754Z,97519.05
2023-03-31T17:16:22.020Z,97521.09
2023-03-31T17:18:53.233Z,97517.44
2023-03-31T17:21:22.181Z,97513.88
2023-03-31T17:23:50.558Z,97517.00
2023-03-31T17:26:19.347Z,97520.42
2023-03-31T17:28:47.724Z,97520.48
2023-03-31T17:31:18.969Z,97522.58
2023-03-31T17:33:48.672Z,97519.85
2023-03-31T17:36:18.298Z,97522.11
2023-03-31T17:38:46.567Z,97522.63
2023-03-31T17:41:15.852Z,97521.05
2023-03-31T17:43:50.315Z,97515.52
2023-03-31T17:46:19.742Z,97514.30
2023-03-31T17:49:03.461Z,97513.97
2023-03-31T17:51:59.124Z,97505.59
2023-03-31T17:54:29.784Z,97499.53
2023-03-31T17:56:59.214Z,97495.63
2023-03-31T17:59:27.822Z,97497.98
2023-03-31T18:02:08.578Z,97491.70
2023-03-31T18:04:39.543Z,97487.23
2023-03-31T18:07:23.746Z,97482.37
2023-03-31T18:09:52.595Z,97475.06
2023-03-31T18:12:24.967Z,97473.16
2023-03-31T18:14:53.667Z,97473.61
2023-03-31T18:17:24.705Z,97471.14
2023-03-31T18:20:03.157Z,97467.13
2023-03-31T18:22:52.648Z,97460.41
2023-03-31T18:25:34.451Z,97456.84
2023-03-31T18:28:05.182Z,97450.98
2023-03-31T18:30:33.767Z,97445.34
2023-03-31T18:33:06.334Z,97443.88
2023-03-31T18:35:35.987Z,97446.39
2023-03-31T18:38:05.471Z,97442.97
2023-03-31T18:40:34.868Z,97443.21
2023-03-31T18:43:04.426Z,97439.51
2023-03-31T18:45:34.016Z,97437.14
2023-03-31T18:48:31.114Z,97438.58
2023-03-31T18:50:59.660Z,97436.22
2023-03-31T18:53:32.503Z,97437.55
2023-03-31T18:56:01.675Z,97432.98
2023-03-31T18:58:31.740Z,97430.59
2023-03-31T19:01:01.732Z,97427.58
2023-03-31T19:03:31.160Z,97428.88
2023-03-31T19:06:10.962Z,97427.26
2023-03-31T19:09:01.933Z,97419.96
2023-03-31T19:11:30.848Z,97412.58
2023-03-31T19:13:59.800Z,97414.91
2023-03-31T19:16:28.409Z,97419.82
2023-03-31T19:19:22.947Z,97424.95
2023-03-31T19:21:52.872Z,97421.14
2023-03-31T19:24:21.420Z,97409.48
2023-03-31T19:26:58.195Z,97411.77
2023-03-31T19:29:31.152Z,97416.86
2023-03-31T19:32:02.817Z,97417.39
2023-03-31T19:34:34.295Z,97412.23
2023-03-31T19:37:06.831Z,97411.62
2023-03-31T19:39:39.802Z,97415.02
2023-03-31T19:42:29.788Z,97416.55
2023-03-31T19:44:59.351Z,97411.09
2023-03-31T19:47:29.588Z,97409.95
2023-03-31T19:49:58.632Z,97412.92
2023-03-31T19:52:29.353Z,97408.20
2023-03-31T19:54:58.436Z,97406.74
2023-03-31T19:57:27.225Z,97405.35
2023-03-31T19:59:56.293Z,97403.27
2023-03-31T20:02:25.153Z,97403.01
2023-03-31T20:05:13.375Z,97401.68
2023-03-31T20:07:43.628Z,97403.48
2023-03-31T20:10:14.238Z,97402.84
2023-03-31T20:12:47.346Z,97397.29
2023-03-31T20:15:19.231Z,97394.77
2023-03-31T20:17:48.190Z,97391.67
2023-03-31T20:20:17.642Z,97395.27
2023-03-31T20:22:46.446Z,97391.03
2023-03-31T20:25:18.073Z,97386.27
2023-03-31T20:27:47.162Z,97381.13
2023-03-31T20:30:16.613Z,97377.95
2023-03-31T20:32:45.181Z,97374.86
2023-03-31T20:35:15.852Z,97375.13
2023-03-31T20:37:45.005Z,97373.80
2023-03-31T20:40:13.820Z,97370.90
2023-03-31T20:42:43.586Z,97366.23
2023-03-31T20:45:13.018Z,97367.80
2023-03-31T20:47:42.128Z,97368.50
2023-03-31T20:50:11.421Z,97369.55
2023-03-31T20:52:40.250Z,97366.34
2023-03-31T20:55:11.306Z,97368.06
2023-03-31T20:57:42.497Z,97368.37
2023-03-31T21:00:12.433Z,97370.02
2023-03-31T21:02:42.297Z,97367.32
2023-03-31T21:05:44.190Z,97363.42
2023-03-31T21:08:12.946Z,97357.73
2023-03-31T21:10:44.532Z,97355.02
2023-03-31T21:13:38.417Z,97351.45
2023-03-31T21:16:08.144Z,97349.45
2023-03-31T21:18:37.801Z,97352.23
2023-03-31T21:21:12.675Z,97354.91
2023-03-31T21:23:42.594Z,97355.35
2023-03-31T21:51:46.342Z,97358.88
2023-03-31T21:54:15.030Z,97356.11
2023-03-31T21:56:46.031Z,97362.90
2023-03-31T21:59:14.356Z,97362.86
2023-03-31T22:01:45.390Z,97364.49
2023-03-31T22:04:14.390Z,97373.35
2023-03-31T22:06:43.538Z,97391.64
2023-03-31T22:09:11.864Z,97399.39
2023-03-31T22:11:51.881Z,97396.63
2023-03-31T22:26:22.121Z,97381.85
2023-03-31T22:28:58.318Z,97384.56
2023-03-31T22:31:28.571Z,97388.96
2023-03-31T22:33:57.208Z,97398.81
2023-03-31T22:36:25.455Z,97396.48
2023-03-31T22:38:53.660Z,97398.20
2023-03-31T22:41:21.965Z,97401.37
2023-03-31T22:43:51.680Z,97399.89
2023-03-31T22:46:20.130Z,97398.44
2023-03-31T22:48:49.595Z,97396.02
2023-03-31T22:51:17.948Z,97391.67
2023-03-31T22:53:52.578Z,97392.77
2023-03-31T22:56:23.124Z,97390.39
2023-03-31T22:58:52.200Z,97385.92
2023-03-31T23:01:21.684Z,97388.52
2023-03-31T23:03:50.656Z,97393.16
2023-03-31T23:06:21.520Z,97395.73
2023-03-31T23:08:49.862Z,97397.40
2023-03-31T23:11:19.091Z,97397.98
2023-03-31T23:13:47.840Z,97402.23
2023-03-31T23:16:23.920Z,97400.45
2023-03-31T23:18:54.661Z,97407.42
2023-03-31T23:21:26.391Z,97406.61
2023-03-31T23:23:58.849Z,97407.73
2023-03-31T23:26:52.570Z,97399.70
2023-03-31T23:29:21.356Z,97395.60
2023-03-31T23:31:52.637Z,97400.36
2023-03-31T23:34:20.930Z,97396.02
2023-03-31T23:36:49.454Z,97392.58
2023-03-31T23:39:17.695Z,97391.27
2023-03-31T23:41:45.879Z,97389.13
2023-03-31T23:44:14.544Z,97389.84
2023-03-31T23:46:44.484Z,97396.38
2023-03-31T23:49:12.749Z,97397.35
2023-03-31T23:51:40.970Z,97401.92
2023-03-31T23:54:09.258Z,97399.15
2023-03-31T23:56:37.601Z,97390.61
2023-03-31T23:59:05.857Z,97386.46
